Time;durP1;ratioP1;P1;durP2;ratioP2;P2;SDS_P1;SDS_P2;PMS_P1;PMS_P2;Temp;Humidity;BMP_temperature;BMP_pressure;BME280_temperature;BME280_humidity;BME280_pressure;Samples;Min_cycle;Max_cycle;Signal;HPM_P1;HPM_P2
2023/08/21 00:01:12;;;;;;;22.83;11.57;;;;;;;18.41;78.30;101794.63;5065636;28;20044;-77
2023/08/21 00:03:39;;;;;;;25.85;11.75;;;;;;;18.39;78.10;101796.50;5063941;28;20047;-77
2023/08/21 00:06:06;;;;;;;22.00;11.63;;;;;;;18.39;77.85;101796.50;5060229;28;20041;-77
2023/08/21 00:08:33;;;;;;;26.73;13.15;;;;;;;18.40;78.28;101798.22;5054362;28;20052;-77
2023/08/21 00:11:00;;;;;;;22.27;11.73;;;;;;;18.37;78.18;101795.69;5060524;28;20441;-77
2023/08/21 00:13:26;;;;;;;21.58;11.93;;;;;;;18.39;78.21;101796.50;5063399;28;20044;-77
2023/08/21 00:15:55;;;;;;;24.23;11.68;;;;;;;18.38;78.29;101798.25;5065879;28;20052;-77
2023/08/21 00:18:23;;;;;;;25.52;12.82;;;;;;;18.39;78.08;101799.16;5066469;28;20075;-77
2023/08/21 00:20:50;;;;;;;22.30;12.90;;;;;;;18.36;78.00;101791.31;5056472;28;20054;-74
2023/08/21 00:23:17;;;;;;;24.20;13.20;;;;;;;18.37;78.14;101788.59;5052019;28;20055;-73
2023/08/21 00:25:48;;;;;;;18.80;11.88;;;;;;;18.36;78.23;101789.53;5053997;28;20494;-73
2023/08/21 00:28:15;;;;;;;21.63;11.65;;;;;;;18.37;78.19;101793.03;5050241;28;20409;-73
2023/08/21 00:30:43;;;;;;;21.73;11.93;;;;;;;18.29;78.10;101779.19;5053974;28;20491;-77
2023/08/21 00:33:10;;;;;;;17.05;10.45;;;;;;;18.35;78.06;101794.84;5057241;28;20487;-77
2023/08/21 00:35:38;;;;;;;18.77;11.50;;;;;;;18.35;77.89;101789.56;5059587;28;20045;-77
2023/08/21 00:38:05;;;;;;;22.55;11.60;;;;;;;18.34;77.96;101788.72;5053428;28;20059;-77
2023/08/21 00:40:32;;;;;;;21.38;11.73;;;;;;;18.34;78.03;101788.72;5055267;28;20049;-77
2023/08/21 00:42:59;;;;;;;23.70;12.00;;;;;;;18.31;78.08;101790.59;5062595;28;20055;-78
2023/08/21 00:45:27;;;;;;;17.80;10.65;;;;;;;18.33;78.12;101791.44;5059729;28;20445;-78
2023/08/21 00:47:54;;;;;;;16.88;9.82;;;;;;;18.31;77.96;101787.97;5051452;28;20057;-77
2023/08/21 00:50:21;;;;;;;15.05;10.05;;;;;;;18.30;77.82;101787.09;5057965;28;20043;-78
2023/08/21 00:52:50;;;;;;;16.33;10.07;;;;;;;18.20;77.86;101765.38;5056723;28;20045;-78
2023/08/21 00:55:18;;;;;;;15.57;9.40;;;;;;;18.29;77.91;101782.72;5043985;28;20044;-77
2023/08/21 00:57:46;;;;;;;20.85;10.85;;;;;;;18.29;77.92;101784.50;5062140;28;20098;-77
2023/08/21 01:00:14;;;;;;;21.17;10.02;;;;;;;18.27;77.87;101781.03;5061868;28;20465;-77
2023/08/21 01:02:41;;;;;;;19.40;9.38;;;;;;;18.11;77.77;101754.25;5053823;28;20045;-77
2023/08/21 01:05:09;;;;;;;20.23;10.68;;;;;;;18.27;77.91;101781.03;5061077;28;20044;-77
2023/08/21 01:07:43;;;;;;;17.02;10.35;;;;;;;18.24;78.02;101773.22;5059122;28;20049;-77
2023/08/21 01:10:21;;;;;;;18.38;10.10;;;;;;;18.23;78.04;101771.50;5064597;28;20439;-77
2023/08/21 01:12:57;;;;;;;19.23;10.05;;;;;;;18.26;78.10;101768.72;5057186;28;20045;-78
2023/08/21 01:15:26;;;;;;;19.70;10.95;;;;;;;18.25;78.24;101772.31;5061545;28;20052;-79
2023/08/21 01:17:54;;;;;;;20.13;11.27;;;;;;;18.25;78.17;101772.31;5030662;28;20056;-77
2023/08/21 01:20:21;;;;;;;15.27;10.23;;;;;;;18.24;78.03;101762.63;5059882;28;20053;-78
2023/08/21 01:22:50;;;;;;;18.35;9.68;;;;;;;18.18;78.14;101756.63;5059377;28;20044;-77
2023/08/21 01:25:18;;;;;;;17.80;9.50;;;;;;;18.24;78.20;101759.97;5060648;28;20584;-77
2023/08/21 01:27:49;;;;;;;16.85;9.40;;;;;;;18.20;78.22;101754.81;5071287;28;20048;-77
2023/08/21 01:30:17;;;;;;;16.17;9.57;;;;;;;18.23;78.18;101752.97;5060789;28;20047;-74
2023/08/21 01:32:59;;;;;;;12.73;8.00;;;;;;;18.23;78.26;101747.69;5055729;28;20037;-76
2023/08/21 01:35:28;;;;;;;19.60;9.77;;;;;;;18.22;78.29;101743.31;5058140;28;20040;-74
2023/08/21 01:37:56;;;;;;;19.85;8.93;;;;;;;18.17;78.14;101730.25;5043179;28;20041;-76
2023/08/21 01:40:25;;;;;;;15.40;9.15;;;;;;;18.22;78.25;101732.75;5060687;28;20044;-75
2023/08/21 01:42:54;;;;;;;16.65;8.77;;;;;;;18.20;78.38;101723.06;5058648;28;20079;-75
2023/08/21 01:45:21;;;;;;;15.25;9.10;;;;;;;18.21;78.29;101726.56;5060065;28;20099;-75
2023/08/21 01:47:48;;;;;;;14.65;8.38;;;;;;;18.16;78.53;101710.88;5058117;28;20056;-74
2023/08/21 01:50:15;;;;;;;15.98;9.23;;;;;;;18.20;78.53;101717.78;5059502;28;20036;-75
2023/08/21 01:52:41;;;;;;;17.13;9.43;;;;;;;18.22;78.32;101716.88;5061234;28;20047;-75
2023/08/21 01:55:10;;;;;;;12.57;7.80;;;;;;;18.16;78.43;101707.38;5063940;28;20423;-75
2023/08/21 01:57:38;;;;;;;18.40;8.77;;;;;;;18.19;78.25;101716.06;5061750;28;20411;-76
2023/08/21 02:00:08;;;;;;;10.65;7.63;;;;;;;18.19;78.36;101716.06;5053335;28;20103;-76
2023/08/21 02:02:35;;;;;;;17.92;8.95;;;;;;;18.19;78.17;101721.34;5061715;28;20044;-75
2023/08/21 02:05:03;;;;;;;11.63;7.90;;;;;;;18.18;78.27;101716.09;5057974;28;20056;-75
2023/08/21 02:07:30;;;;;;;18.50;8.32;;;;;;;18.17;78.15;101712.59;5058361;28;20052;-75
2023/08/21 02:09:57;;;;;;;11.32;7.68;;;;;;;18.13;78.20;101711.00;5061824;28;20051;-75
2023/08/21 02:12:23;;;;;;;12.32;8.15;;;;;;;18.16;78.18;101717.97;5061906;28;20045;-75
2023/08/21 02:14:52;;;;;;;10.60;7.53;;;;;;;18.14;78.29;101718.00;5058570;28;20428;-75
2023/08/21 02:17:19;;;;;;;11.02;7.65;;;;;;;18.14;78.15;101723.28;5056776;28;20495;-76
2023/08/21 02:19:45;;;;;;;14.52;7.90;;;;;;;18.15;78.24;101725.00;5062793;28;20048;-75
2023/08/21 02:22:12;;;;;;;12.68;8.45;;;;;;;18.04;78.61;101711.28;5057913;28;20128;-75
2023/08/21 02:24:39;;;;;;;12.25;7.40;;;;;;;18.13;78.36;101721.56;5056343;28;20056;-75
2023/08/21 02:27:06;;;;;;;15.05;8.48;;;;;;;18.13;78.12;101720.69;5059634;28;20049;-75
2023/08/21 02:29:33;;;;;;;14.50;8.50;;;;;;;18.13;78.30;101718.94;5058726;28;20384;-75
2023/08/21 02:32:01;;;;;;;15.18;9.55;;;;;;;18.13;78.46;101710.09;5056525;28;20486;-75
2023/08/21 02:34:28;;;;;;;15.73;8.50;;;;;;;18.11;78.28;101710.16;5059102;28;20075;-76
2023/08/21 02:36:55;;;;;;;15.23;8.93;;;;;;;18.12;78.35;101716.31;5056157;28;20056;-76
2023/08/21 02:39:22;;;;;;;14.18;8.75;;;;;;;18.10;78.51;101712.84;5035123;28;20514;-75
2023/08/21 02:41:49;;;;;;;18.25;8.98;;;;;;;18.11;78.52;101712.81;5049093;28;20048;-72
2023/08/21 02:44:16;;;;;;;13.60;8.27;;;;;;;18.11;78.54;101707.53;5053971;28;20053;-73
2023/08/21 02:46:43;;;;;;;12.50;7.97;;;;;;;18.12;78.67;101713.69;5056806;28;20049;-72
2023/08/21 02:49:11;;;;;;;13.27;7.80;;;;;;;18.11;78.58;101706.66;5054089;28;20060;-72
2023/08/21 02:51:38;;;;;;;12.82;8.13;;;;;;;18.10;78.71;101700.53;5058710;28;20056;-75
2023/08/21 02:54:05;;;;;;;16.25;9.02;;;;;;;18.11;78.60;101699.59;5055531;28;20056;-74
2023/08/21 02:56:32;;;;;;;13.43;8.65;;;;;;;18.10;78.80;101689.94;5051937;28;20127;-75
2023/08/21 02:58:59;;;;;;;10.82;7.68;;;;;;;18.11;78.66;101686.38;5055266;28;20041;-75
2023/08/21 03:01:25;;;;;;;14.38;7.97;;;;;;;18.10;78.47;101679.38;5048522;28;20048;-75
2023/08/21 03:03:52;;;;;;;10.80;7.05;;;;;;;18.09;78.52;101667.06;5052168;28;20048;-76
2023/08/21 03:06:21;;;;;;;12.57;7.22;;;;;;;18.09;78.49;101672.34;5056871;28;20052;-75
2023/08/21 03:08:47;;;;;;;10.75;7.30;;;;;;;18.09;78.38;101674.97;5050711;28;20057;-74
2023/08/21 03:11:14;;;;;;;11.52;7.30;;;;;;;18.10;78.32;101675.84;5057806;28;20416;-74
2023/08/21 03:13:42;;;;;;;9.23;6.90;;;;;;;18.09;78.12;101684.69;5054207;28;20459;-75
2023/08/21 03:16:08;;;;;;;17.35;7.63;;;;;;;18.07;77.95;101676.84;5057859;28;20466;-75
2023/08/21 03:18:55;;;;;;;10.60;6.18;;;;;;;18.07;77.87;101674.19;5057170;28;20754;-75
2023/08/21 03:21:24;;;;;;;9.75;6.55;;;;;;;18.06;77.55;101675.09;5057971;28;20040;-74
2023/08/21 03:23:53;;;;;;;11.90;6.65;;;;;;;18.04;77.67;101673.41;5057530;28;20056;-75
2023/08/21 03:26:19;;;;;;;10.30;6.53;;;;;;;18.02;77.22;101672.63;5053177;28;20779;-74
2023/08/21 03:28:46;;;;;;;13.57;6.20;;;;;;;18.02;77.34;101667.34;5053458;28;20044;-75
2023/08/21 03:31:13;;;;;;;15.05;7.47;;;;;;;17.92;77.32;101657.06;5060680;28;20047;-76
2023/08/21 03:33:40;;;;;;;12.20;7.47;;;;;;;17.99;77.60;101668.31;5059470;28;20495;-75
2023/08/21 03:36:07;;;;;;;15.00;7.25;;;;;;;17.98;77.67;101669.22;5056433;28;20498;-75
2023/08/21 03:38:36;;;;;;;9.50;7.13;;;;;;;17.97;77.52;101670.13;5055511;28;20051;-75
2023/08/21 03:41:04;;;;;;;9.57;6.90;;;;;;;17.95;77.37;101669.31;5055371;28;20072;-76
2023/08/21 03:43:31;;;;;;;8.85;6.60;;;;;;;17.94;77.68;101672.88;5055842;28;20068;-76
2023/08/21 03:45:58;;;;;;;9.55;6.70;;;;;;;17.92;77.71;101665.00;5056924;28;20052;-74
2023/08/21 03:48:25;;;;;;;12.65;6.53;;;;;;;17.84;77.76;101655.59;5059022;28;20049;-75
2023/08/21 03:50:52;;;;;;;11.75;6.03;;;;;;;17.91;77.88;101673.00;5052749;28;20056;-75
2023/08/21 03:53:19;;;;;;;8.23;6.63;;;;;;;17.83;78.18;101660.03;5053794;28;20048;-75
2023/08/21 03:55:47;;;;;;;11.10;5.82;;;;;;;17.90;78.10;101665.97;5052704;28;20044;-74
2023/08/21 03:58:15;;;;;;;10.23;5.80;;;;;;;17.90;78.15;101668.59;5055092;28;20407;-76
2023/08/21 04:00:42;;;;;;;11.93;6.45;;;;;;;17.89;78.15;101666.91;5056284;28;20049;-75
2023/08/21 04:03:08;;;;;;;9.20;6.05;;;;;;;17.89;78.17;101664.25;5054061;28;20041;-74
2023/08/21 04:05:35;;;;;;;8.43;5.47;;;;;;;17.82;78.43;101654.81;5053714;28;20052;-75
2023/08/21 04:08:02;;;;;;;7.38;5.85;;;;;;;17.88;78.25;101670.47;5054459;28;20499;-75
2023/08/21 04:10:29;;;;;;;9.20;6.40;;;;;;;17.82;78.49;101660.09;5053879;28;20041;-72
2023/08/21 04:12:57;;;;;;;8.35;5.68;;;;;;;17.89;78.57;101669.53;5052154;28;20044;-73
2023/08/21 04:15:24;;;;;;;11.25;5.75;;;;;;;17.89;78.56;101678.31;5049621;28;20048;-73
2023/08/21 04:17:51;;;;;;;7.75;5.63;;;;;;;17.90;78.57;101671.25;5054840;28;20522;-73
2023/08/21 04:20:19;;;;;;;9.70;6.30;;;;;;;17.87;78.67;101666.06;5053419;28;20510;-74
2023/08/21 04:22:46;;;;;;;11.02;6.95;;;;;;;17.90;78.76;101676.53;5053531;28;20407;-73
2023/08/21 04:25:13;;;;;;;9.75;6.50;;;;;;;17.90;78.76;101681.81;5053449;28;20037;-74
2023/08/21 04:27:40;;;;;;;9.95;6.75;;;;;;;17.90;78.89;101681.81;5051233;28;20047;-74
2023/08/21 04:30:09;;;;;;;12.80;6.43;;;;;;;17.90;78.78;101679.19;5048678;28;20051;-74
2023/08/21 04:32:36;;;;;;;11.35;6.57;;;;;;;17.89;78.78;101680.09;5050470;28;20048;-73
2023/08/21 04:35:04;;;;;;;10.65;6.75;;;;;;;17.91;78.93;101680.94;5055823;28;20049;-73
2023/08/21 04:37:32;;;;;;;10.27;6.32;;;;;;;17.85;78.98;101667.94;5052772;28;20573;-72
2023/08/21 04:39:58;;;;;;;12.90;6.28;;;;;;;17.90;79.14;101676.53;5050448;28;20041;-73
2023/08/21 04:42:25;;;;;;;11.52;6.32;;;;;;;17.92;79.03;101680.00;5054054;28;20053;-72
2023/08/21 04:44:52;;;;;;;9.30;6.00;;;;;;;17.92;79.12;101686.16;5048337;28;20422;-72
2023/08/21 04:47:26;;;;;;;10.23;5.97;;;;;;;17.93;79.24;101679.06;5052602;28;20071;-73
2023/08/21 04:49:53;;;;;;;7.55;5.53;;;;;;;17.90;79.33;101672.16;5051457;28;20048;-73
2023/08/21 04:52:21;;;;;;;9.60;5.18;;;;;;;17.90;79.26;101669.50;5053125;28;20522;-72
2023/08/21 04:54:49;;;;;;;10.85;5.05;;;;;;;17.95;79.36;101671.97;5051967;28;20507;-72
2023/08/21 04:57:16;;;;;;;5.20;4.43;;;;;;;17.95;79.36;101679.88;5054450;28;20060;-75
2023/08/21 04:59:43;;;;;;;6.20;4.28;;;;;;;17.96;79.34;101671.91;5052581;28;20048;-75
2023/08/21 05:02:10;;;;;;;5.35;3.55;;;;;;;17.95;79.52;101674.59;5054617;28;20047;-75
2023/08/21 05:04:38;;;;;;;4.43;4.03;;;;;;;17.97;79.33;101673.63;5032845;28;20126;-73
2023/08/21 05:07:05;;;;;;;6.63;3.20;;;;;;;18.00;79.48;101664.75;5051842;28;20055;-74
2023/08/21 05:09:32;;;;;;;4.30;2.95;;;;;;;18.01;79.55;101673.53;5054752;28;20517;-74
2023/08/21 05:12:00;;;;;;;3.88;2.88;;;;;;;17.99;79.69;101665.66;5055834;28;20055;-87
2023/08/21 05:14:27;;;;;;;5.82;2.70;;;;;;;18.01;79.51;101670.88;5056660;28;20051;-86
2023/08/21 05:16:54;;;;;;;3.88;2.95;;;;;;;17.87;79.53;101640.53;5058211;28;20060;-88
2023/08/21 05:19:20;;;;;;;2.58;2.35;;;;;;;18.00;79.59;101662.09;5057625;28;20044;-86
2023/08/21 05:21:49;;;;;;;4.80;2.10;;;;;;;18.04;79.58;101666.34;5053747;28;20411;-76
2023/08/21 05:24:16;;;;;;;2.85;2.10;;;;;;;18.05;79.62;101665.44;5053657;28;20047;-76
2023/08/21 05:26:42;;;;;;;2.90;2.00;;;;;;;18.07;79.60;101671.56;5048608;28;20805;-75
2023/08/21 05:29:09;;;;;;;2.30;2.10;;;;;;;18.08;79.75;101660.03;5052090;28;20403;-75
2023/08/21 05:31:36;;;;;;;3.38;2.47;;;;;;;18.05;79.74;101662.81;5054048;28;20055;-75
2023/08/21 05:34:03;;;;;;;2.13;1.83;;;;;;;17.98;79.74;101650.69;5055415;28;20037;-75
2023/08/21 05:36:30;;;;;;;1.83;1.30;;;;;;;18.11;79.79;101659.94;5055054;28;20071;-76
2023/08/21 05:38:59;;;;;;;3.30;1.63;;;;;;;18.13;79.85;101667.78;5053502;28;20045;-75
2023/08/21 05:41:25;;;;;;;2.97;2.17;;;;;;;18.11;79.80;101654.66;5051520;28;20051;-76
2023/08/21 05:43:52;;;;;;;2.22;1.65;;;;;;;18.16;79.81;101663.28;5058683;28;20620;-75
2023/08/21 05:46:19;;;;;;;2.22;1.60;;;;;;;18.16;79.75;101652.72;5049377;28;20598;-75
2023/08/21 05:48:46;;;;;;;3.25;1.63;;;;;;;18.19;79.69;101663.16;5057818;28;20094;-76
2023/08/21 05:51:13;;;;;;;3.60;1.85;;;;;;;18.20;79.67;101662.25;5053008;28;20045;-74
2023/08/21 05:53:40;;;;;;;2.97;1.63;;;;;;;18.18;79.94;101658.78;5054766;28;20103;-74
2023/08/21 05:56:08;;;;;;;3.05;1.70;;;;;;;18.22;79.85;101664.84;5051895;28;20060;-75
2023/08/21 05:58:35;;;;;;;6.85;2.70;;;;;;;18.24;79.60;101660.34;5054031;28;20041;-75
2023/08/21 06:01:02;;;;;;;3.60;2.65;;;;;;;18.25;79.50;101658.59;5054350;28;20052;-81
2023/08/21 06:03:29;;;;;;;3.35;2.05;;;;;;;18.26;79.56;101657.66;5053624;28;20067;-78
2023/08/21 06:05:56;;;;;;;1.85;1.65;;;;;;;18.17;79.57;101649.13;5058024;28;20048;-76
2023/08/21 06:08:22;;;;;;;4.43;2.00;;;;;;;18.28;79.59;101656.69;5059899;28;20044;-76
2023/08/21 06:10:52;;;;;;;12.10;3.05;;;;;;;18.25;79.62;101651.50;5062156;28;20059;-78
2023/08/21 06:13:21;;;;;;;4.82;1.67;;;;;;;18.15;79.85;101629.81;5062650;28;20045;-77
2023/08/21 06:15:48;;;;;;;3.03;1.73;;;;;;;18.32;79.95;101653.00;5056532;28;20606;-81
2023/08/21 06:18:15;;;;;;;6.13;1.23;;;;;;;18.22;79.77;101630.47;5058943;28;20084;-79
2023/08/21 06:20:43;;;;;;;3.40;1.73;;;;;;;18.35;79.89;101652.03;5064399;28;20071;-76
2023/08/21 06:23:10;;;;;;;4.00;1.15;;;;;;;18.36;79.88;101651.97;5060069;28;20048;-79
2023/08/21 06:25:37;;;;;;;2.15;1.10;;;;;;;18.38;80.07;101657.19;5060420;28;20195;-80
2023/08/21 06:28:05;;;;;;;2.17;0.90;;;;;;;18.40;80.07;101652.72;5058273;28;20067;-75
2023/08/21 06:30:33;;;;;;;3.08;1.25;;;;;;;18.42;80.01;101656.19;5060691;28;20056;-77
2023/08/21 06:33:00;;;;;;;3.92;1.17;;;;;;;18.46;79.94;101654.28;5064931;28;20502;-75
2023/08/21 06:35:27;;;;;;;4.72;1.23;;;;;;;18.47;80.06;101646.28;5060628;28;20048;-75
2023/08/21 06:37:55;;;;;;;6.93;1.15;;;;;;;18.51;79.79;101647.03;5057047;28;20053;-75
2023/08/21 06:40:22;;;;;;;3.05;1.60;;;;;;;18.53;79.87;101635.47;5057425;28;20045;-76
2023/08/21 06:42:50;;;;;;;5.53;1.55;;;;;;;18.57;79.86;101637.06;5053999;28;20518;-77
2023/08/21 06:45:17;;;;;;;1.73;1.52;;;;;;;18.59;79.87;101635.22;5057006;28;20063;-75
2023/08/21 06:47:47;;;;;;;2.38;1.38;;;;;;;18.63;79.65;101636.81;5054144;28;20080;-76
2023/08/21 06:50:13;;;;;;;3.25;1.00;;;;;;;18.66;79.43;101633.22;5070199;28;20394;-82
2023/08/21 06:52:41;;;;;;;5.50;0.88;;;;;;;18.71;79.46;101627.75;5063365;28;20060;-80
2023/08/21 06:55:08;;;;;;;3.90;1.08;;;;;;;18.75;79.32;101626.72;5060701;28;20448;-81
2023/08/21 06:57:36;;;;;;;2.67;1.40;;;;;;;18.78;79.25;101629.25;5054579;28;20094;-79
2023/08/21 07:00:04;;;;;;;3.90;1.25;;;;;;;18.80;79.26;101622.13;5059381;28;20072;-80
2023/08/21 07:02:31;;;;;;;2.08;1.00;;;;;;;18.86;79.43;101628.03;5060964;28;20041;-84
2023/08/21 07:04:59;;;;;;;3.40;1.38;;;;;;;18.90;79.28;101627.91;5065798;28;20068;-83
2023/08/21 07:07:26;;;;;;;6.63;1.02;;;;;;;18.93;78.92;101625.16;5058216;28;20052;-83
2023/08/21 07:09:53;;;;;;;6.38;1.10;;;;;;;18.89;78.94;101608.50;5067703;28;20052;-83
2023/08/21 07:12:20;;;;;;;8.85;2.08;;;;;;;18.92;78.60;101613.69;5058790;28;20048;-83
2023/08/21 07:14:46;;;;;;;3.78;0.95;;;;;;;19.04;78.43;101623.81;5064791;28;20053;-82
2023/08/21 07:17:14;;;;;;;1.65;0.80;;;;;;;19.01;77.73;101615.97;5062991;28;20056;-90
2023/08/21 07:19:41;;;;;;;2.33;0.82;;;;;;;19.12;77.62;101630.56;5059189;28;20056;-80
2023/08/21 07:22:09;;;;;;;3.05;0.70;;;;;;;19.15;77.68;101622.50;5052700;28;20045;-77
2023/08/21 07:24:36;;;;;;;5.25;1.13;;;;;;;19.17;77.47;101620.66;5055069;28;20041;-77
2023/08/21 07:27:03;;;;;;;5.03;0.93;;;;;;;19.04;77.42;101597.31;5069614;28;20503;-88
2023/08/21 07:29:30;;;;;;;5.45;1.30;;;;;;;19.19;76.95;101605.56;5066025;28;20051;-90
2023/08/21 07:31:57;;;;;;;5.05;1.02;;;;;;;19.26;76.67;101620.25;5057941;28;20488;-86
2023/08/21 07:34:24;;;;;;;8.00;1.25;;;;;;;19.28;76.40;101613.13;5060219;28;20059;-84
2023/08/21 07:36:51;;;;;;;3.10;0.95;;;;;;;19.31;76.54;101618.28;5065465;28;20048;-88
2023/08/21 07:39:20;;;;;;;5.88;1.20;;;;;;;19.32;76.38;101606.75;5063671;28;20056;-83
2023/08/21 07:41:47;;;;;;;6.72;1.58;;;;;;;19.38;76.26;101610.94;5065811;28;20066;-80
2023/08/21 07:44:14;;;;;;;5.00;1.05;;;;;;;19.42;76.02;101610.75;5057833;28;20056;-80
2023/08/21 07:46:40;;;;;;;4.55;1.23;;;;;;;19.46;75.84;101611.47;5062068;28;20434;-78
2023/08/21 07:49:07;;;;;;;3.97;1.08;;;;;;;19.50;75.83;101611.28;5054291;28;20040;-76
2023/08/21 07:51:34;;;;;;;4.13;1.08;;;;;;;19.57;76.30;101616.34;5050445;28;20041;-75
2023/08/21 07:54:01;;;;;;;2.78;1.38;;;;;;;19.62;76.22;101615.22;5054976;28;20056;-76
2023/08/21 07:56:29;;;;;;;8.10;1.58;;;;;;;19.69;75.69;101610.53;5052113;28;20052;-77
2023/08/21 07:58:56;;;;;;;3.95;0.70;;;;;;;19.60;75.26;101579.94;5053440;28;20049;-75
2023/08/21 08:01:23;;;;;;;4.53;0.80;;;;;;;19.83;74.93;101600.19;5054235;28;20048;-74
2023/08/21 08:03:50;;;;;;;2.90;0.80;;;;;;;19.88;74.47;101603.50;5052445;28;20079;-78
2023/08/21 08:06:18;;;;;;;4.50;0.77;;;;;;;19.94;74.40;101605.88;5056324;28;20048;-77
2023/08/21 08:08:45;;;;;;;7.20;1.30;;;;;;;20.02;74.32;101599.38;5059715;28;20131;-81
2023/08/21 08:11:12;;;;;;;2.97;1.05;;;;;;;20.07;74.09;101603.53;5058116;28;20048;-83
2023/08/21 08:13:40;;;;;;;5.30;0.90;;;;;;;20.14;73.70;101598.81;5053319;28;20053;-81
2023/08/21 08:16:07;;;;;;;2.92;1.15;;;;;;;20.18;73.70;101595.13;5055903;28;20048;-78
2023/08/21 08:18:34;;;;;;;5.88;1.10;;;;;;;20.23;73.72;101595.75;5057709;28;20045;-81
2023/08/21 08:21:01;;;;;;;3.88;1.23;;;;;;;20.34;73.44;101601.41;5054831;28;20511;-75
2023/08/21 08:23:28;;;;;;;5.82;1.08;;;;;;;20.44;73.71;101602.72;5060633;28;20042;-79
2023/08/21 08:25:55;;;;;;;4.38;1.60;;;;;;;20.51;73.15;101602.44;5055735;28;20045;-77
2023/08/21 08:28:22;;;;;;;5.03;1.20;;;;;;;20.61;72.87;101606.41;5054858;28;21101;-80
2023/08/21 08:30:51;;;;;;;1.88;0.80;;;;;;;20.62;72.14;101589.53;5057979;28;20071;-80
2023/08/21 08:33:18;;;;;;;6.80;1.00;;;;;;;20.74;71.95;101601.38;5056349;28;21212;-77
2023/08/21 08:35:45;;;;;;;4.85;0.80;;;;;;;20.72;72.03;101580.22;5063525;28;20438;-80
2023/08/21 08:38:12;;;;;;;5.53;0.98;;;;;;;20.79;71.89;101584.28;5054822;28;20053;-79
2023/08/21 08:40:44;;;;;;;6.20;0.98;;;;;;;20.85;71.73;101583.97;5055289;28;20135;-83
2023/08/21 08:43:12;;;;;;;6.13;1.20;;;;;;;20.98;71.13;101596.69;5055733;28;20045;-86
2023/08/21 08:45:39;;;;;;;6.03;1.10;;;;;;;21.03;71.02;101605.25;5059573;28;20049;-79
2023/08/21 08:48:08;;;;;;;4.30;1.00;;;;;;;21.08;70.34;101595.28;5064365;28;20045;-82
2023/08/21 08:50:35;;;;;;;1.52;1.08;;;;;;;21.07;70.49;101590.91;5054160;28;20510;-77
2023/08/21 08:53:03;;;;;;;2.88;0.90;;;;;;;21.17;70.24;101601.94;5053076;28;20058;-77
2023/08/21 08:55:30;;;;;;;8.27;0.95;;;;;;;21.21;69.61;101593.75;5054038;28;20106;-78
2023/08/21 08:57:57;;;;;;;7.20;1.08;;;;;;;21.26;69.92;101599.69;5058941;28;20487;-78
2023/08/21 09:00:25;;;;;;;5.10;1.10;;;;;;;21.09;69.75;101562.47;5052285;28;20041;-74
2023/08/21 09:02:53;;;;;;;3.42;0.90;;;;;;;21.32;69.38;101594.06;5051832;28;20052;-78
2023/08/21 09:05:21;;;;;;;4.22;0.90;;;;;;;21.36;69.25;101593.91;5059306;28;20048;-78
2023/08/21 09:08:03;;;;;;;2.92;1.25;;;;;;;21.41;69.53;101597.22;5058150;28;20052;-80
2023/08/21 09:10:30;;;;;;;2.95;0.90;;;;;;;21.44;69.37;101602.38;5054610;28;20044;-77
2023/08/21 09:13:01;;;;;;;7.40;1.10;;;;;;;21.47;68.48;101589.78;5053578;28;20045;-75
2023/08/21 09:15:29;;;;;;;6.68;1.05;;;;;;;21.50;67.77;101592.28;5051027;28;20051;-76
2023/08/21 09:17:57;;;;;;;2.97;0.82;;;;;;;21.46;67.84;101582.75;5054663;28;20049;-78
2023/08/21 09:20:25;;;;;;;4.72;0.80;;;;;;;21.57;67.63;101587.50;5057828;28;20041;-81
2023/08/21 09:22:56;;;;;;;4.80;1.20;;;;;;;21.62;67.64;101584.63;5059020;28;20163;-81
2023/08/21 09:25:24;;;;;;;3.00;1.45;;;;;;;21.66;66.85;101586.16;5056526;28;20099;-88
2023/08/21 09:27:54;;;;;;;3.15;0.68;;;;;;;21.66;66.03;101578.19;5061881;28;20049;-81
2023/08/21 09:30:21;;;;;;;5.20;0.70;;;;;;;21.66;66.51;101575.53;5061975;28;20045;-80
2023/08/21 09:32:56;;;;;;;2.40;0.77;;;;;;;21.56;65.80;101564.53;5061254;28;20045;-82
2023/08/21 09:35:23;;;;;;;5.18;0.77;;;;;;;21.74;66.16;101587.53;5055804;28;20063;-75
2023/08/21 09:37:52;;;;;;;3.05;0.77;;;;;;;21.77;65.87;101591.78;5053061;28;20056;-76
2023/08/21 09:40:20;;;;;;;1.10;0.50;;;;;;;21.81;65.70;101581.88;5051426;28;20067;-72
2023/08/21 09:42:52;;;;;;;4.72;0.80;;;;;;;21.83;65.34;101590.59;5052463;28;20048;-73
2023/08/21 09:45:21;;;;;;;5.10;0.68;;;;;;;21.86;65.35;101579.81;5052425;28;20415;-73
2023/08/21 09:47:49;;;;;;;3.35;0.85;;;;;;;21.87;65.22;101576.22;5053009;28;20045;-77
2023/08/21 09:50:16;;;;;;;2.17;0.55;;;;;;;21.91;65.33;101581.28;5059694;28;20068;-76
2023/08/21 09:52:44;;;;;;;4.65;1.10;;;;;;;21.94;65.21;101586.47;5055457;28;20093;-77
2023/08/21 09:55:14;;;;;;;1.38;0.60;;;;;;;21.98;64.07;101581.81;5061307;28;20695;-79
2023/08/21 09:57:41;;;;;;;3.53;0.60;;;;;;;22.01;64.96;101579.00;5060943;28;20063;-77
2023/08/21 10:00:15;;;;;;;2.13;0.90;;;;;;;22.04;64.71;101584.16;5064595;28;20049;-72
2023/08/21 10:02:47;;;;;;;1.40;0.70;;;;;;;22.05;64.60;101587.66;5053704;28;20116;-72
2023/08/21 10:05:16;;;;;;;2.58;0.60;;;;;;;21.95;64.42;101574.88;5056076;28;20583;-72
2023/08/21 10:07:45;;;;;;;1.52;0.73;;;;;;;22.05;64.51;101580.53;5054433;28;20080;-72
2023/08/21 10:10:14;;;;;;;2.30;0.70;;;;;;;22.04;64.81;101573.50;5056911;28;20036;-71
2023/08/21 10:12:40;;;;;;;1.33;0.50;;;;;;;22.03;64.27;101577.13;5055024;28;20049;-72
2023/08/21 10:15:09;;;;;;;5.28;1.10;;;;;;;22.02;64.31;101586.03;5052298;28;20511;-72
2023/08/21 10:17:36;;;;;;;2.92;0.90;;;;;;;22.02;64.54;101572.72;5054198;28;20056;-72
2023/08/21 10:20:04;;;;;;;4.45;0.63;;;;;;;22.03;64.25;101574.47;5057230;28;20490;-72
2023/08/21 10:22:43;;;;;;;4.72;0.77;;;;;;;22.03;63.94;101561.16;5058443;28;20061;-73
2023/08/21 10:25:20;;;;;;;2.63;0.75;;;;;;;22.05;64.33;101553.09;5055973;28;20577;-72
2023/08/21 10:27:47;;;;;;;2.72;0.60;;;;;;;22.02;63.69;101557.63;5053035;28;20132;-73
2023/08/21 10:30:16;;;;;;;1.98;0.60;;;;;;;22.06;63.90;101565.44;5054667;28;20045;-73
2023/08/21 10:32:47;;;;;;;3.70;0.60;;;;;;;22.06;63.50;101553.00;5054591;28;20895;-72
2023/08/21 10:35:20;;;;;;;4.00;0.68;;;;;;;22.07;63.39;101557.38;5055973;28;20041;-72
2023/08/21 10:38:12;;;;;;;3.40;0.70;;;;;;;22.08;63.76;101552.91;5059203;28;20052;-75
2023/08/21 10:40:41;;;;;;;3.97;0.63;;;;;;;22.05;64.13;101553.94;5054140;28;20044;-74
2023/08/21 10:43:38;;;;;;;3.75;0.77;;;;;;;22.07;64.26;101556.53;5056606;28;20052;-75
2023/08/21 10:46:05;;;;;;;1.05;0.70;;;;;;;22.06;63.82;101550.34;5021160;28;20105;-76
2023/08/21 10:48:32;;;;;;;2.92;0.68;;;;;;;22.08;63.99;101558.25;5057658;28;20044;-73
2023/08/21 10:51:02;;;;;;;2.53;0.70;;;;;;;22.09;63.62;101558.16;5052384;28;20056;-74
2023/08/21 10:53:29;;;;;;;3.63;0.70;;;;;;;22.09;63.45;101560.81;5053878;28;20044;-75
2023/08/21 10:55:58;;;;;;;4.18;0.95;;;;;;;22.12;64.22;101555.34;5053733;28;20155;-75
2023/08/21 10:58:25;;;;;;;3.00;0.73;;;;;;;22.14;64.04;101556.13;5054354;28;20044;-73
2023/08/21 11:00:58;;;;;;;2.83;0.70;;;;;;;22.15;63.38;101563.16;5056525;28;20041;-72
2023/08/21 11:03:25;;;;;;;3.85;0.80;;;;;;;22.14;63.68;101555.25;5051170;28;20049;-72
2023/08/21 11:06:02;;;;;;;1.77;0.73;;;;;;;22.17;63.44;101558.66;5057436;28;20044;-72
2023/08/21 11:08:29;;;;;;;2.17;0.50;;;;;;;22.16;63.22;101556.88;5052855;28;20139;-71
2023/08/21 11:10:58;;;;;;;4.85;0.60;;;;;;;22.12;63.47;101560.66;5058944;28;20055;-86
2023/08/21 11:13:25;;;;;;;4.07;0.73;;;;;;;22.14;63.19;101550.81;5064858;28;20100;-86
2023/08/21 11:15:59;;;;;;;2.28;0.90;;;;;;;22.15;63.39;101554.31;5062484;28;20056;-87
2023/08/21 11:18:31;;;;;;;6.28;0.70;;;;;;;22.16;62.85;101556.03;5061804;28;20127;-77
2023/08/21 11:21:05;;;;;;;4.00;0.65;;;;;;;22.15;63.07;101555.16;5052884;28;20052;-86
2023/08/21 11:23:34;;;;;;;1.70;0.70;;;;;;;22.15;62.07;101555.16;5058965;28;20059;-81
2023/08/21 11:26:03;;;;;;;2.70;0.70;;;;;;;22.16;62.30;101551.56;5064014;28;20052;-84